Time;durP1;ratioP1;P1;durP2;ratioP2;P2;SDS_P1;SDS_P2;PMS_P1;PMS_P2;Temp;Humidity;BMP_temperature;BMP_pressure;BME280_temperature;BME280_humidity;BME280_pressure;Samples;Min_cycle;Max_cycle;Signal;HPM_P1;HPM_P2
2022/09/25 00:01:32;;;;;;;8.68;6.45;;;15.60;99.90;;;;;;7390840;19;20247;-81
2022/09/25 00:03:58;;;;;;;9.90;6.72;;;15.50;99.90;;;;;;7395024;19;20138;-82
2022/09/25 00:06:25;;;;;;;9.43;7.18;;;15.30;99.90;;;;;;7385921;19;20168;-82
2022/09/25 00:08:52;;;;;;;8.13;6.53;;;15.40;99.90;;;;;;7391158;19;20130;-82
2022/09/25 00:11:22;;;;;;;6.68;5.90;;;15.30;99.90;;;;;;7390371;19;20135;-80
2022/09/25 00:13:48;;;;;;;7.35;6.65;;;15.00;99.90;;;;;;7390648;19;20142;-82
2022/09/25 00:16:18;;;;;;;8.30;6.40;;;15.00;99.90;;;;;;7390142;19;20785;-82
2022/09/25 00:21:30;;;;;;;7.55;6.63;;;15.10;99.90;;;;;;7391125;19;20130;-82
2022/09/25 00:23:59;;;;;;;9.65;6.93;;;15.30;99.90;;;;;;7389649;19;20130;-83
2022/09/25 00:26:28;;;;;;;7.68;6.50;;;15.40;99.90;;;;;;7386740;19;20152;-82
2022/09/25 00:28:55;;;;;;;8.82;6.80;;;15.40;99.90;;;;;;7390719;19;20142;-81
2022/09/25 00:31:23;;;;;;;10.10;6.68;;;15.30;99.90;;;;;;7390919;19;20163;-84
2022/09/25 00:33:50;;;;;;;7.20;6.50;;;15.40;99.90;;;;;;7388974;19;20169;-82
2022/09/25 00:36:16;;;;;;;9.23;6.45;;;15.40;99.90;;;;;;7387966;19;20126;-82
2022/09/25 00:38:42;;;;;;;8.15;6.63;;;15.60;99.90;;;;;;7390769;19;20157;-82
2022/09/25 00:41:08;;;;;;;7.65;6.75;;;15.40;99.90;;;;;;7392584;19;20127;-82
2022/09/25 00:43:43;;;;;;;8.50;6.68;;;15.30;99.90;;;;;;7389640;19;20139;-82
2022/09/25 00:46:39;;;;;;;6.95;6.15;;;15.30;99.90;;;;;;7393331;19;20138;-82
2022/09/25 00:49:11;;;;;;;7.15;5.97;;;15.30;99.90;;;;;;7388145;19;20482;-82
2022/09/25 00:51:45;;;;;;;8.15;6.40;;;15.30;99.90;;;;;;7391369;19;20218;-82
2022/09/25 00:54:21;;;;;;;8.02;6.00;;;15.40;99.90;;;;;;7387985;19;20611;-82
2022/09/25 00:56:51;;;;;;;9.10;6.70;;;15.40;99.90;;;;;;7391356;19;20158;-83
2022/09/25 00:59:21;;;;;;;9.02;6.93;;;15.30;99.90;;;;;;7389428;19;20162;-83
2022/09/25 01:01:47;;;;;;;8.63;6.82;;;15.30;99.90;;;;;;7389048;19;20159;-78
2022/09/25 01:04:14;;;;;;;8.60;6.70;;;15.30;99.90;;;;;;7390477;19;20588;-78
2022/09/25 01:06:40;;;;;;;9.13;7.55;;;15.20;99.90;;;;;;7384408;19;20167;-78
2022/09/25 01:09:06;;;;;;;9.10;7.30;;;15.20;99.90;;;;;;7388809;19;20154;-78
2022/09/25 01:11:32;;;;;;;9.27;7.03;;;15.30;99.90;;;;;;7386497;19;20139;-78
2022/09/25 01:14:01;;;;;;;9.73;7.18;;;15.30;99.90;;;;;;7388194;19;20600;-77
2022/09/25 01:16:34;;;;;;;8.07;7.13;;;15.40;99.90;;;;;;7387766;19;20147;-77
2022/09/25 01:19:15;;;;;;;8.10;6.57;;;15.10;99.90;;;;;;7387873;19;20166;-78
2022/09/25 01:21:49;;;;;;;10.90;6.57;;;15.10;99.90;;;;;;7388650;19;20138;-77
2022/09/25 01:24:14;;;;;;;10.38;7.35;;;15.00;99.90;;;;;;7396007;19;20196;-78
2022/09/25 01:27:02;;;;;;;8.73;7.35;;;15.10;99.90;;;;;;7398003;19;20143;-77
2022/09/25 01:29:46;;;;;;;9.75;6.95;;;15.20;99.90;;;;;;7393655;19;20139;-77
2022/09/25 01:32:43;;;;;;;8.73;7.18;;;15.20;99.90;;;;;;7394989;19;20164;-78
2022/09/25 01:35:42;;;;;;;9.65;7.38;;;15.20;99.90;;;;;;7390228;19;20159;-78
2022/09/25 01:38:23;;;;;;;9.27;7.72;;;15.10;99.90;;;;;;7392766;19;20143;-78
2022/09/25 01:41:08;;;;;;;10.75;7.18;;;15.10;99.90;;;;;;7392707;19;20162;-78
2022/09/25 01:43:50;;;;;;;10.65;6.97;;;15.30;99.90;;;;;;7394512;19;20155;-78
2022/09/25 01:46:29;;;;;;;9.27;6.88;;;15.40;99.90;;;;;;7394133;19;20234;-79
2022/09/25 01:49:16;;;;;;;9.00;7.18;;;15.50;99.90;;;;;;7396288;19;20134;-77
2022/09/25 01:51:47;;;;;;;9.95;7.05;;;15.40;99.90;;;;;;7397083;19;20149;-79
2022/09/25 01:54:50;;;;;;;7.72;6.93;;;15.30;99.90;;;;;;7395724;19;20153;-77
2022/09/25 01:57:35;;;;;;;9.95;7.30;;;15.30;99.90;;;;;;7388698;19;20185;-77
2022/09/25 02:00:07;;;;;;;8.45;6.95;;;15.40;99.90;;;;;;7395113;19;21054;-77
2022/09/25 02:02:45;;;;;;;8.45;6.82;;;15.30;99.90;;;;;;7393920;19;20146;-78
2022/09/25 02:05:20;;;;;;;8.40;7.15;;;15.30;99.90;;;;;;7393326;19;20165;-78
2022/09/25 02:07:53;;;;;;;7.45;6.53;;;15.10;99.90;;;;;;7384508;19;20145;-78
2022/09/25 02:10:32;;;;;;;9.45;7.03;;;15.10;99.90;;;;;;7395626;19;20151;-78
2022/09/25 02:13:07;;;;;;;8.50;6.80;;;15.00;99.90;;;;;;7395109;19;20154;-77
2022/09/25 02:16:01;;;;;;;7.72;6.35;;;15.20;99.90;;;;;;7392197;19;20150;-79
2022/09/25 02:21:37;;;;;;;9.35;6.97;;;15.30;99.90;;;;;;7393658;19;20600;-77
2022/09/25 02:24:25;;;;;;;7.07;5.70;;;15.30;99.90;;;;;;7393658;19;20225;-78
2022/09/25 02:26:51;;;;;;;15.00;8.18;;;15.30;99.90;;;;;;7392269;19;20138;-78
2022/09/25 02:29:18;;;;;;;13.75;8.52;;;15.30;99.90;;;;;;7391523;19;20158;-77
2022/09/25 02:31:50;;;;;;;12.02;8.45;;;15.40;99.90;;;;;;7393253;19;20142;-78
2022/09/25 02:34:16;;;;;;;9.75;6.72;;;15.40;99.90;;;;;;7392066;19;20150;-78
2022/09/25 02:36:43;;;;;;;7.55;6.22;;;15.10;99.90;;;;;;7391785;19;20750;-77
2022/09/25 02:39:11;;;;;;;7.60;6.10;;;15.10;99.90;;;;;;7391810;19;20537;-78
2022/09/25 02:41:55;;;;;;;7.90;6.68;;;15.10;99.90;;;;;;7391808;19;20498;-77
2022/09/25 02:44:39;;;;;;;7.38;5.88;;;15.10;99.90;;;;;;7390913;19;20166;-78
2022/09/25 02:47:05;;;;;;;6.45;5.20;;;15.00;99.90;;;;;;7390107;19;20210;-77
2022/09/25 02:49:50;;;;;;;7.80;6.10;;;14.90;99.90;;;;;;7392163;19;20183;-78
2022/09/25 02:52:57;;;;;;;6.97;5.47;;;15.00;99.90;;;;;;7393509;19;20673;-77
2022/09/25 02:55:33;;;;;;;8.32;5.78;;;14.70;99.90;;;;;;7387894;19;20173;-79
2022/09/25 02:58:30;;;;;;;8.98;6.85;;;14.90;99.90;;;;;;7394558;19;20145;-78
2022/09/25 03:01:01;;;;;;;8.52;6.28;;;14.70;99.90;;;;;;7392070;19;20607;-78
2022/09/25 03:03:27;;;;;;;9.27;7.43;;;14.70;99.90;;;;;;7392702;19;20686;-78
2022/09/25 03:05:57;;;;;;;10.40;8.07;;;15.00;99.90;;;;;;7390870;19;20138;-77
2022/09/25 03:08:37;;;;;;;9.63;8.38;;;14.80;99.90;;;;;;7392707;19;20158;-76
2022/09/25 03:11:05;;;;;;;10.48;8.43;;;15.00;99.90;;;;;;7395100;19;20145;-78
2022/09/25 03:13:33;;;;;;;12.32;8.75;;;15.00;99.90;;;;;;7391775;19;20154;-77
2022/09/25 03:16:05;;;;;;;11.48;9.00;;;15.10;99.90;;;;;;7390936;19;20142;-77
2022/09/25 03:18:31;;;;;;;13.50;9.45;;;15.20;99.90;;;;;;7391907;19;20146;-77
2022/09/25 03:20:58;;;;;;;12.95;9.52;;;15.10;99.90;;;;;;7391159;19;20145;-78
2022/09/25 03:23:24;;;;;;;12.85;10.70;;;15.10;99.90;;;;;;7392779;19;20143;-77
2022/09/25 03:25:54;;;;;;;13.57;10.73;;;15.20;99.90;;;;;;7388803;19;20163;-77
2022/09/25 03:28:21;;;;;;;15.25;10.90;;;15.10;99.90;;;;;;7392477;19;20150;-77
2022/09/25 03:31:09;;;;;;;16.00;10.60;;;15.10;99.90;;;;;;7392943;19;20651;-78
2022/09/25 03:33:40;;;;;;;13.68;9.88;;;15.10;99.90;;;;;;7390227;19;20641;-78
2022/09/25 03:36:09;;;;;;;11.38;9.23;;;15.10;99.90;;;;;;7389754;19;20616;-79
2022/09/25 03:38:36;;;;;;;12.73;10.30;;;15.10;99.90;;;;;;7390662;19;20171;-79
2022/09/25 03:41:06;;;;;;;13.52;10.48;;;15.10;99.90;;;;;;7391639;19;20143;-77
2022/09/25 03:43:35;;;;;;;12.77;10.23;;;15.00;99.90;;;;;;7389645;19;20130;-77
2022/09/25 03:46:05;;;;;;;11.07;9.75;;;14.90;99.90;;;;;;7389588;19;20135;-78
2022/09/25 03:48:31;;;;;;;12.35;9.68;;;15.00;99.90;;;;;;7392046;19;20607;-78
2022/09/25 03:50:57;;;;;;;11.98;9.65;;;14.90;99.90;;;;;;7392412;19;20171;-78
2022/09/25 03:53:26;;;;;;;13.00;10.25;;;14.60;99.90;;;;;;7391250;19;20135;-78
2022/09/25 03:55:53;;;;;;;10.90;8.40;;;14.40;99.90;;;;;;7390819;19;20142;-78
2022/09/25 03:58:19;;;;;;;12.00;9.50;;;14.50;99.90;;;;;;7391038;19;20897;-77
2022/09/25 04:00:45;;;;;;;13.30;9.40;;;14.80;99.90;;;;;;7392476;19;20139;-78
2022/09/25 04:03:12;;;;;;;11.10;8.85;;;15.00;99.90;;;;;;7391834;19;20131;-77
2022/09/25 04:05:38;;;;;;;11.50;9.70;;;14.90;99.90;;;;;;7392271;19;20141;-77
2022/09/25 04:08:04;;;;;;;11.13;9.40;;;14.90;99.90;;;;;;7392451;19;20174;-78
2022/09/25 04:10:31;;;;;;;13.57;8.88;;;15.00;99.90;;;;;;7392015;19;20544;-77
2022/09/25 04:12:57;;;;;;;13.50;9.95;;;15.10;99.90;;;;;;7389906;19;20155;-76
2022/09/25 04:15:24;;;;;;;12.20;9.40;;;15.00;99.90;;;;;;7389956;19;20155;-77
2022/09/25 04:17:54;;;;;;;11.80;9.07;;;15.00;99.90;;;;;;7390530;19;20631;-77
2022/09/25 04:20:20;;;;;;;10.93;8.65;;;15.20;99.90;;;;;;7390383;19;20223;-78
2022/09/25 04:22:46;;;;;;;12.25;9.95;;;15.00;99.90;;;;;;7388688;19;20223;-76
2022/09/25 04:25:11;;;;;;;10.20;8.32;;;14.90;99.90;;;;;;7389652;19;20185;-77
2022/09/25 04:27:37;;;;;;;12.50;10.00;;;14.90;99.90;;;;;;7390598;19;20819;-78
2022/09/25 04:30:04;;;;;;;13.60;10.07;;;15.00;99.90;;;;;;7390807;19;20142;-78
2022/09/25 04:35:14;;;;;;;13.13;9.18;;;14.90;99.90;;;;;;7390239;19;20171;-78
2022/09/25 04:37:40;;;;;;;12.88;9.93;;;14.90;99.90;;;;;;7389828;19;20139;-78
2022/09/25 04:40:06;;;;;;;13.05;9.82;;;14.90;99.90;;;;;;7390059;19;20151;-77
2022/09/25 04:42:32;;;;;;;14.85;9.82;;;14.80;99.90;;;;;;7387827;19;20154;-77
2022/09/25 04:44:58;;;;;;;14.05;10.75;;;14.80;99.90;;;;;;7390014;19;20145;-77
2022/09/25 04:47:28;;;;;;;11.93;9.70;;;14.80;99.90;;;;;;7391442;19;20478;-78
2022/09/25 04:49:53;;;;;;;12.80;10.33;;;14.80;99.90;;;;;;7389123;19;20150;-77
2022/09/25 04:52:19;;;;;;;13.27;9.95;;;14.80;99.90;;;;;;7389770;19;20748;-78
2022/09/25 04:54:46;;;;;;;12.65;9.75;;;14.80;99.90;;;;;;7389616;19;20209;-78
2022/09/25 04:57:18;;;;;;;12.10;9.17;;;14.90;99.90;;;;;;7391433;19;20951;-78
2022/09/25 04:59:44;;;;;;;12.75;9.60;;;14.80;99.90;;;;;;7394353;19;20139;-76
2022/09/25 05:02:11;;;;;;;12.15;9.35;;;14.80;99.90;;;;;;7398053;19;20134;-78
2022/09/25 05:04:37;;;;;;;13.75;9.77;;;14.80;99.90;;;;;;7397291;19;20525;-78
2022/09/25 05:07:04;;;;;;;11.95;9.15;;;14.80;99.90;;;;;;7395943;19;20483;-78
2022/09/25 05:09:30;;;;;;;13.57;9.93;;;14.70;99.90;;;;;;7393351;19;20157;-78
2022/09/25 05:11:56;;;;;;;12.57;9.15;;;14.70;99.90;;;;;;7397912;19;20167;-78
2022/09/25 05:14:23;;;;;;;11.90;9.25;;;14.70;99.90;;;;;;7395924;19;20135;-78
2022/09/25 05:16:49;;;;;;;14.10;10.18;;;14.90;99.90;;;;;;7398502;19;20230;-77
2022/09/25 05:19:15;;;;;;;20.40;10.43;;;14.90;99.90;;;;;;7396979;19;20130;-78
2022/09/25 05:21:41;;;;;;;11.65;9.13;;;14.70;99.90;;;;;;7397614;19;20631;-77
2022/09/25 05:24:08;;;;;;;12.15;9.40;;;14.80;99.90;;;;;;7396404;19;20146;-77
2022/09/25 05:26:36;;;;;;;10.73;8.05;;;14.70;99.90;;;;;;7397519;19;20134;-78
2022/09/25 05:29:03;;;;;;;14.98;9.20;;;14.70;99.90;;;;;;7395740;19;20493;-77
2022/09/25 05:31:30;;;;;;;12.90;9.13;;;14.50;99.90;;;;;;7396876;19;20134;-77
2022/09/25 05:33:56;;;;;;;11.35;9.30;;;14.60;99.90;;;;;;7395414;19;20127;-77
2022/09/25 05:36:22;;;;;;;12.02;8.75;;;14.70;99.90;;;;;;7395655;19;20156;-78
2022/09/25 05:38:48;;;;;;;11.90;9.23;;;14.70;99.90;;;;;;7396641;19;20147;-77
2022/09/25 05:41:14;;;;;;;11.32;8.40;;;14.70;99.90;;;;;;7391071;19;20794;-77
2022/09/25 05:43:42;;;;;;;14.00;9.32;;;15.00;99.90;;;;;;7395222;19;20225;-78
2022/09/25 05:46:09;;;;;;;12.23;9.55;;;15.00;99.90;;;;;;7394701;19;20484;-77
2022/09/25 05:48:35;;;;;;;11.88;9.07;;;14.80;99.90;;;;;;7393249;19;20137;-79
2022/09/25 05:51:01;;;;;;;13.48;9.20;;;14.60;99.90;;;;;;7396254;19;20134;-78
2022/09/25 05:53:27;;;;;;;11.20;8.88;;;14.40;99.90;;;;;;7395644;19;20604;-77
2022/09/25 05:55:57;;;;;;;13.65;9.52;;;14.60;99.90;;;;;;7392895;19;20489;-77
2022/09/25 05:58:24;;;;;;;11.43;8.75;;;14.70;99.90;;;;;;7392588;19;20603;-77
2022/09/25 06:00:50;;;;;;;11.00;8.38;;;14.80;99.90;;;;;;7397150;19;20143;-77
2022/09/25 06:03:16;;;;;;;13.32;8.95;;;14.60;99.90;;;;;;7394123;19;20157;-77
2022/09/25 06:05:45;;;;;;;13.48;8.98;;;14.70;99.90;;;;;;7394048;19;20674;-78
2022/09/25 06:08:12;;;;;;;12.85;8.50;;;14.80;99.90;;;;;;7394630;19;20140;-78
2022/09/25 06:10:39;;;;;;;13.50;8.73;;;14.90;99.90;;;;;;7394710;19;20154;-78
2022/09/25 06:13:05;;;;;;;11.82;8.40;;;14.90;99.90;;;;;;7395305;19;20494;-79
2022/09/25 06:15:36;;;;;;;13.07;9.60;;;14.90;99.90;;;;;;7395272;19;20135;-78
2022/09/25 06:18:07;;;;;;;11.57;8.02;;;14.90;99.90;;;;;;7390537;19;20150;-78
2022/09/25 06:20:34;;;;;;;12.38;9.00;;;14.90;99.90;;;;;;7397684;19;20131;-78
2022/09/25 06:23:00;;;;;;;12.18;8.88;;;15.00;99.90;;;;;;7395510;19;20135;-77
2022/09/25 06:25:29;;;;;;;11.18;8.75;;;15.10;99.90;;;;;;7391075;19;20154;-79
2022/09/25 06:27:59;;;;;;;13.27;8.48;;;14.90;99.90;;;;;;7394622;19;20490;-79
2022/09/25 06:30:33;;;;;;;13.57;9.23;;;14.90;99.90;;;;;;7393266;19;20150;-78
2022/09/25 06:33:08;;;;;;;11.88;8.38;;;14.80;99.90;;;;;;7391821;19;20165;-78
2022/09/25 06:35:35;;;;;;;12.35;8.30;;;14.90;99.90;;;;;;7392769;19;20138;-77
2022/09/25 06:38:02;;;;;;;12.18;8.80;;;14.90;99.90;;;;;;7391044;19;20608;-78
2022/09/25 06:40:30;;;;;;;11.32;8.48;;;14.50;99.90;;;;;;7393237;19;20654;-77
2022/09/25 06:42:59;;;;;;;10.30;7.68;;;14.70;99.90;;;;;;7393493;19;20138;-77
2022/09/25 06:45:27;;;;;;;10.85;7.85;;;14.80;99.90;;;;;;7392845;19;20613;-78
2022/09/25 06:47:56;;;;;;;10.57;7.70;;;15.10;99.90;;;;;;7395357;19;20135;-78
2022/09/25 06:50:30;;;;;;;11.20;8.05;;;15.00;99.90;;;;;;7392158;19;20173;-77
2022/09/25 06:52:58;;;;;;;10.15;7.60;;;15.10;99.90;;;;;;7394823;19;20222;-78
2022/09/25 06:55:24;;;;;;;11.45;8.93;;;15.10;99.90;;;;;;7390259;19;20178;-78
2022/09/25 06:57:50;;;;;;;10.60;8.15;;;15.10;99.90;;;;;;7389693;19;20146;-78
2022/09/25 07:00:16;;;;;;;10.85;8.45;;;15.20;99.90;;;;;;7392480;19;20146;-78
2022/09/25 07:05:26;;;;;;;11.50;8.10;;;15.20;99.90;;;;;;7393930;19;20139;-79
2022/09/25 07:07:53;;;;;;;9.27;6.80;;;15.20;99.90;;;;;;7396372;19;20138;-77
2022/09/25 07:10:19;;;;;;;9.48;6.88;;;15.20;99.90;;;;;;7394017;19;20135;-78
2022/09/25 07:12:45;;;;;;;10.68;7.35;;;15.30;99.90;;;;;;7395078;19;20171;-78
2022/09/25 07:15:11;;;;;;;9.35;6.85;;;15.20;99.90;;;;;;7389840;19;20671;-78
2022/09/25 07:17:41;;;;;;;7.03;5.63;;;15.20;99.90;;;;;;7394946;19;20143;-78
2022/09/25 07:20:09;;;;;;;10.77;7.15;;;15.30;99.90;;;;;;7393127;19;20132;-78
2022/09/25 07:22:34;;;;;;;10.68;7.07;;;15.40;99.90;;;;;;7395312;19;20138;-76
2022/09/25 07:25:00;;;;;;;10.40;6.72;;;15.30;99.90;;;;;;7394138;19;20190;-79
2022/09/25 07:27:26;;;;;;;7.97;6.60;;;15.30;99.90;;;;;;7392845;19;20165;-78
2022/09/25 07:29:52;;;;;;;8.07;5.93;;;15.20;99.90;;;;;;7391722;19;20137;-79
2022/09/25 07:32:19;;;;;;;8.55;6.25;;;15.40;99.90;;;;;;7391592;19;20632;-77
2022/09/25 07:34:48;;;;;;;9.18;6.22;;;15.30;99.90;;;;;;7385516;19;20179;-76
2022/09/25 07:37:15;;;;;;;9.68;7.20;;;15.40;99.90;;;;;;7393255;19;20138;-76
2022/09/25 07:39:40;;;;;;;7.75;6.50;;;15.30;99.90;;;;;;7391988;19;20135;-77
2022/09/25 07:42:07;;;;;;;8.30;6.75;;;15.20;99.90;;;;;;7389906;19;20150;-76
2022/09/25 07:44:33;;;;;;;9.85;7.03;;;15.40;99.90;;;;;;7391855;19;20157;-77
2022/09/25 07:47:00;;;;;;;9.73;7.32;;;15.40;99.90;;;;;;7390943;19;20134;-76
2022/09/25 07:49:26;;;;;;;7.72;6.18;;;15.50;99.90;;;;;;7390422;19;20180;-76
2022/09/25 07:51:52;;;;;;;8.88;6.45;;;15.50;99.90;;;;;;7390630;19;20146;-76
2022/09/25 07:54:17;;;;;;;8.50;7.07;;;15.40;99.90;;;;;;7389855;19;20226;-76
2022/09/25 07:56:43;;;;;;;8.68;6.18;;;15.50;99.90;;;;;;7389875;19;20147;-77
2022/09/25 07:59:09;;;;;;;7.60;6.15;;;15.50;99.90;;;;;;7387190;19;20231;-76
2022/09/25 08:01:35;;;;;;;8.00;5.03;;;15.50;99.90;;;;;;7391670;19;20210;-77
2022/09/25 08:04:01;;;;;;;7.70;6.10;;;15.40;99.90;;;;;;7389581;19;20134;-76
2022/09/25 08:06:26;;;;;;;6.78;5.28;;;15.40;99.90;;;;;;7390574;19;20147;-77
2022/09/25 08:08:52;;;;;;;8.07;6.22;;;15.30;99.90;;;;;;7388650;19;20150;-77
2022/09/25 08:11:18;;;;;;;9.25;6.45;;;15.40;99.90;;;;;;7387971;19;20354;-77
2022/09/25 08:13:44;;;;;;;7.82;6.00;;;15.50;99.90;;;;;;7387863;19;20135;-76
2022/09/25 08:16:16;;;;;;;9.88;7.40;;;15.50;99.90;;;;;;7386595;19;20135;-75
2022/09/25 08:18:45;;;;;;;9.25;6.95;;;15.70;99.90;;;;;;7391586;19;20138;-76
2022/09/25 08:21:13;;;;;;;8.52;6.35;;;15.60;99.90;;;;;;7389815;19;20146;-76
2022/09/25 08:23:40;;;;;;;8.80;7.28;;;15.70;99.90;;;;;;7387847;19;20229;-76
2022/09/25 08:26:06;;;;;;;9.07;6.93;;;15.70;99.90;;;;;;7388242;19;20178;-77
2022/09/25 08:28:32;;;;;;;9.32;7.40;;;15.60;99.90;;;;;;7387662;19;21338;-77
2022/09/25 08:30:59;;;;;;;9.70;7.30;;;15.50;99.90;;;;;;7388209;19;20158;-76
2022/09/25 08:33:25;;;;;;;10.00;7.30;;;15.60;99.90;;;;;;7395447;19;20213;-77
2022/09/25 08:35:59;;;;;;;8.02;6.10;;;15.60;99.90;;;;;;7393455;19;20131;-76
2022/09/25 08:38:25;;;;;;;9.82;7.22;;;15.30;99.90;;;;;;7397722;19;20146;-75
2022/09/25 08:41:16;;;;;;;8.15;6.07;;;15.50;99.90;;;;;;7395695;19;20177;-76
2022/09/25 08:43:51;;;;;;;12.35;7.10;;;15.50;99.90;;;;;;7395199;19;20134;-75
2022/09/25 08:49:13;;;;;;;8.73;7.05;;;15.70;99.90;;;;;;7396436;19;20485;-76
2022/09/25 08:51:47;;;;;;;12.45;8.55;;;15.80;99.90;;;;;;7396665;19;20852;-75
2022/09/25 08:54:24;;;;;;;10.77;7.35;;;15.80;99.90;;;;;;7394325;19;20222;-75
2022/09/25 08:56:53;;;;;;;10.57;7.93;;;15.90;99.90;;;;;;7391071;19;20726;-75
2022/09/25 08:59:29;;;;;;;11.43;8.07;;;15.90;99.90;;;;;;7394429;19;20202;-76
2022/09/25 09:02:01;;;;;;;9.43;7.50;;;15.90;99.90;;;;;;7390704;19;20165;-75
2022/09/25 09:04:44;;;;;;;10.68;6.95;;;15.90;99.90;;;;;;7389087;19;20142;-76
2022/09/25 09:07:11;;;;;;;8.82;6.60;;;15.80;99.90;;;;;;7392682;19;20714;-75
2022/09/25 09:09:39;;;;;;;9.02;7.13;;;15.80;99.90;;;;;;7391341;19;20169;-75
2022/09/25 09:12:20;;;;;;;8.88;7.10;;;15.80;99.90;;;;;;7393912;19;20202;-75
2022/09/25 09:14:50;;;;;;;9.65;7.30;;;15.70;99.90;;;;;;7393725;19;20142;-75
2022/09/25 09:17:26;;;;;;;9.38;7.03;;;15.70;99.90;;;;;;7395017;19;20683;-76
2022/09/25 09:19:58;;;;;;;7.88;6.47;;;15.80;99.90;;;;;;7395612;19;20142;-76
2022/09/25 09:22:30;;;;;;;8.85;6.78;;;15.80;99.90;;;;;;7395035;19;20523;-75
2022/09/25 09:25:17;;;;;;;9.10;6.20;;;15.90;99.90;;;;;;7394757;19;20810;-75
2022/09/25 09:27:45;;;;;;;8.70;6.63;;;15.90;99.90;;;;;;7395944;19;20142;-75
2022/09/25 09:30:19;;;;;;;7.43;6.10;;;15.90;99.90;;;;;;7392027;19;20527;-76
2022/09/25 09:33:12;;;;;;;7.95;5.95;;;16.00;99.90;;;;;;7396447;19;20143;-74
2022/09/25 09:36:04;;;;;;;8.13;5.63;;;15.90;99.90;;;;;;7393962;19;20142;-74
2022/09/25 09:38:45;;;;;;;6.20;4.90;;;16.10;99.90;;;;;;7392286;19;20927;-74
2022/09/25 09:41:33;;;;;;;6.35;5.15;;;16.30;99.90;;;;;;7393582;19;20131;-74
2022/09/25 09:44:40;;;;;;;6.45;4.95;;;16.00;99.90;;;;;;7377636;19;20146;-74
2022/09/25 09:47:27;;;;;;;6.70;4.38;;;15.80;99.90;;;;;;7380907;19;20274;-76
2022/09/25 09:50:19;;;;;;;5.90;4.35;;;15.60;99.90;;;;;;7392397;19;20217;-74
2022/09/25 09:52:50;;;;;;;5.40;3.97;;;15.50;99.90;;;;;;7386853;19;20134;-75
2022/09/25 09:55:40;;;;;;;5.35;4.22;;;15.80;99.90;;;;;;7384775;19;20158;-76
2022/09/25 09:58:18;;;;;;;7.03;5.05;;;15.90;99.90;;;;;;7389267;19;20158;-73
2022/09/25 10:00:47;;;;;;;4.82;4.20;;;16.10;99.90;;;;;;7391520;19;20155;-74
2022/09/25 10:03:27;;;;;;;5.72;3.83;;;15.90;99.90;;;;;;7390229;19;20142;-75
2022/09/25 10:06:11;;;;;;;6.25;4.60;;;16.10;99.90;;;;;;7392548;19;20127;-74
2022/09/25 10:08:40;;;;;;;5.05;4.55;;;16.10;99.90;;;;;;7391282;19;20904;-74
2022/09/25 10:11:18;;;;;;;5.38;4.80;;;16.20;99.90;;;;;;7392886;19;20126;-74
2022/09/25 10:13:45;;;;;;;6.50;4.75;;;16.30;99.90;;;;;;7392417;19;20553;-74
2022/09/25 10:16:18;;;;;;;4.88;4.38;;;16.30;99.90;;;;;;7390350;19;20246;-74
2022/09/25 10:19:08;;;;;;;6.50;5.03;;;16.20;99.90;;;;;;7392819;19;20966;-74
2022/09/25 10:21:42;;;;;;;6.60;5.43;;;16.30;99.90;;;;;;7394761;19;20134;-74
2022/09/25 10:24:07;;;;;;;6.05;4.80;;;16.30;99.90;;;;;;7393787;19;20218;-74
2022/09/25 10:26:38;;;;;;;7.93;5.75;;;16.20;99.90;;;;;;7390012;19;20223;-74
2022/09/25 10:29:07;;;;;;;6.05;5.00;;;16.40;99.90;;;;;;7390228;19;20123;-75
2022/09/25 10:31:38;;;;;;;4.93;4.43;;;16.40;99.90;;;;;;7394714;19;20146;-75
2022/09/25 10:34:15;;;;;;;9.00;5.60;;;16.50;99.90;;;;;;7392216;19;20139;-76
2022/09/25 10:36:44;;;;;;;6.68;5.25;;;16.70;99.90;;;;;;7393497;19;20142;-75
2022/09/25 10:39:30;;;;;;;6.57;4.75;;;16.60;99.90;;;;;;7389787;19;20146;-75
2022/09/25 10:41:59;;;;;;;6.80;4.90;;;16.50;99.90;;;;;;7392044;19;20159;-75
2022/09/25 10:44:33;;;;;;;9.88;5.32;;;16.50;99.90;;;;;;7393781;19;20601;-75
2022/09/25 10:50:25;;;;;;;5.60;4.53;;;16.40;99.90;;;;;;7395998;19;20146;-74
2022/09/25 10:53:04;;;;;;;6.55;5.13;;;16.30;99.90;;;;;;7392674;19;20154;-76
2022/09/25 10:55:34;;;;;;;8.38;5.03;;;16.30;99.90;;;;;;7391570;19;20503;-75
2022/09/25 10:58:23;;;;;;;8.38;5.65;;;16.40;99.90;;;;;;7391922;19;20833;-75
2022/09/25 11:00:52;;;;;;;6.68;5.05;;;16.40;99.90;;;;;;7392455;19;20142;-74
2022/09/25 11:03:40;;;;;;;6.47;5.40;;;16.30;99.90;;;;;;7394984;19;20164;-75
2022/09/25 11:06:24;;;;;;;6.93;5.45;;;16.30;99.90;;;;;;7393107;19;20159;-78
2022/09/25 11:09:12;;;;;;;9.25;6.07;;;16.20;99.90;;;;;;7392539;19;20138;-74
2022/09/25 11:11:39;;;;;;;9.13;6.45;;;16.10;99.90;;;;;;7393200;19;20142;-74
2022/09/25 11:14:31;;;;;;;9.25;6.60;;;16.10;99.90;;;;;;7392525;19;20150;-76
2022/09/25 11:16:57;;;;;;;10.45;6.90;;;16.00;99.90;;;;;;7395430;19;20135;-75
2022/09/25 11:19:29;;;;;;;10.05;7.20;;;16.00;99.90;;;;;;7390499;19;20134;-75
2022/09/25 11:22:16;;;;;;;10.20;8.23;;;16.00;99.90;;;;;;7392385;19;20154;-78
2022/09/25 11:24:45;;;;;;;9.85;8.23;;;16.10;99.90;;;;;;7389783;19;20154;-77
2022/09/25 11:27:18;;;;;;;8.98;7.47;;;16.10;99.90;;;;;;7390391;19;20150;-76
2022/09/25 11:29:55;;;;;;;10.50;8.32;;;16.10;99.90;;;;;;7393189;19;20134;-76
2022/09/25 11:32:40;;;;;;;10.40;7.78;;;16.10;99.90;;;;;;7392780;19;20501;-75
2022/09/25 11:35:33;;;;;;;13.50;9.00;;;16.00;99.90;;;;;;7389657;19;20165;-75
2022/09/25 11:41:54;;;;;;;13.88;9.05;;;15.90;99.90;;;;;;7389262;19;20154;-74
2022/09/25 11:44:38;;;;;;;13.65;8.32;;;16.00;99.90;;;;;;7392135;19;20138;-73
2022/09/25 11:47:19;;;;;;;13.25;8.40;;;15.90;99.90;;;;;;7390753;19;20173;-78
2022/09/25 11:49:50;;;;;;;11.68;8.50;;;16.20;99.90;;;;;;7391722;19;20679;-75
2022/09/25 11:52:25;;;;;;;13.50;8.88;;;16.20;99.90;;;;;;7392973;19;20130;-76
2022/09/25 11:55:09;;;;;;;13.93;10.25;;;16.10;99.90;;;;;;7392026;19;20152;-75
2022/09/25 11:57:42;;;;;;;12.00;9.10;;;16.10;99.90;;;;;;7391618;19;20138;-73
2022/09/25 12:00:16;;;;;;;10.95;7.63;;;16.10;99.90;;;;;;7391941;19;20142;-74
2022/09/25 12:03:15;;;;;;;10.48;8.50;;;16.00;99.90;;;;;;7390872;19;20146;-74
2022/09/25 12:06:07;;;;;;;10.35;8.63;;;16.10;99.90;;;;;;7390984;19;20134;-74
2022/09/25 12:09:09;;;;;;;11.43;8.68;;;16.10;99.90;;;;;;7389028;19;20155;-75
2022/09/25 12:12:04;;;;;;;12.45;9.20;;;16.20;99.90;;;;;;7392595;19;20146;-73
2022/09/25 12:14:51;;;;;;;11.48;9.02;;;16.20;99.90;;;;;;7390317;19;20169;-75
2022/09/25 12:17:27;;;;;;;11.50;9.40;;;16.20;99.90;;;;;;7389671;19;20225;-78
2022/09/25 12:19:58;;;;;;;12.48;9.10;;;16.30;99.90;;;;;;7390266;19;20142;-74
2022/09/25 12:22:42;;;;;;;11.40;8.00;;;16.20;99.90;;;;;;7391189;19;20139;-74
2022/09/25 12:25:20;;;;;;;11.18;8.95;;;16.30;99.90;;;;;;7391467;19;20151;-75
2022/09/25 12:27:57;;;;;;;11.23;8.75;;;16.30;99.90;;;;;;7389923;19;20154;-75
2022/09/25 12:30:56;;;;;;;12.35;9.60;;;16.50;99.90;;;;;;7390241;19;20176;-75
2022/09/25 12:34:05;;;;;;;13.60;9.38;;;16.60;99.90;;;;;;7390699;19;20147;-74
2022/09/25 12:36:35;;;;;;;12.80;9.35;;;16.60;99.90;;;;;;7387605;19;20475;-73
2022/09/25 12:39:19;;;;;;;12.55;9.48;;;16.60;99.90;;;;;;7389064;19;20142;-74
2022/09/25 12:41:54;;;;;;;11.38;9.13;;;16.80;99.90;;;;;;7391287;19;20467;-75
2022/09/25 12:44:54;;;;;;;11.13;8.50;;;16.90;99.90;;;;;;7390418;19;20567;-75
2022/09/25 12:47:40;;;;;;;11.98;9.68;;;17.00;99.90;;;;;;7389918;19;20155;-74
2022/09/25 12:50:15;;;;;;;13.30;8.77;;;17.20;99.90;;;;;;7390785;19;20170;-75
2022/09/25 12:52:44;;;;;;;11.68;8.98;;;17.40;99.90;;;;;;7388879;19;20161;-74
2022/09/25 12:55:17;;;;;;;12.57;8.77;;;17.50;99.90;;;;;;7388356;19;20177;-75
2022/09/25 12:58:05;;;;;;;10.55;8.23;;;17.70;99.90;;;;;;7390453;19;20255;-75
2022/09/25 13:00:34;;;;;;;10.85;8.75;;;17.90;99.90;;;;;;7392661;19;20230;-74
2022/09/25 13:03:14;;;;;;;9.00;7.47;;;17.80;99.90;;;;;;7389690;19;20146;-75
2022/09/25 13:05:51;;;;;;;10.45;7.97;;;17.50;99.90;;;;;;7390320;19;20170;-74
2022/09/25 13:08:32;;;;;;;11.90;8.05;;;17.40;99.90;;;;;;7386879;19;20166;-75
2022/09/25 13:11:13;;;;;;;10.88;8.75;;;17.30;99.90;;;;;;7391552;19;20138;-75
2022/09/25 13:13:47;;;;;;;9.40;7.38;;;17.30;99.90;;;;;;7390496;19;20143;-75
2022/09/25 13:16:14;;;;;;;9.23;7.38;;;17.20;99.90;;;;;;7386444;19;20142;-74
2022/09/25 13:18:47;;;;;;;8.57;6.90;;;17.20;99.90;;;;;;7394870;19;20145;-74
2022/09/25 13:21:31;;;;;;;10.00;6.90;;;17.20;99.90;;;;;;7397941;19;21163;-74
2022/09/25 13:23:58;;;;;;;9.45;6.88;;;17.10;99.90;;;;;;7394476;19;20142;-74
2022/09/25 13:26:29;;;;;;;7.55;6.10;;;16.90;99.90;;;;;;7396053;19;20145;-75
2022/09/25 13:29:16;;;;;;;7.75;6.70;;;17.00;99.90;;;;;;7396666;19;20143;-75
2022/09/25 13:31:44;;;;;;;6.57;5.95;;;16.90;99.90;;;;;;7396400;19;20142;-75